createdAt,value
2023-03-01T00:01:37.108Z,64.27
2023-03-01T00:04:05.698Z,64.44
2023-03-01T00:06:33.982Z,64.51
2023-03-01T00:09:01.939Z,64.28
2023-03-01T00:11:31.880Z,64.22
2023-03-01T00:14:03.040Z,64.40
2023-03-01T00:16:36.901Z,64.49
2023-03-01T00:19:04.738Z,64.49
2023-03-01T00:21:32.853Z,64.44
2023-03-01T00:24:01.190Z,64.35
2023-03-01T00:26:30.338Z,64.30
2023-03-01T00:29:00.036Z,64.40
2023-03-01T00:31:31.336Z,64.47
2023-03-01T00:34:02.593Z,64.48
2023-03-01T00:36:35.873Z,64.45
2023-03-01T00:39:07.243Z,64.52
2023-03-01T00:41:35.738Z,64.60
2023-03-01T00:44:04.334Z,64.56
2023-03-01T00:46:32.588Z,64.38
2023-03-01T00:49:03.178Z,64.71
2023-03-01T00:51:31.613Z,64.61
2023-03-01T00:54:02.841Z,64.67
2023-03-01T00:56:32.392Z,64.55
2023-03-01T00:59:01.280Z,64.84
2023-03-01T01:01:31.451Z,64.75
2023-03-01T01:04:02.417Z,64.86
2023-03-01T01:06:36.444Z,64.83
2023-03-01T01:09:07.758Z,64.67
2023-03-01T01:11:37.503Z,64.58
2023-03-01T01:14:05.400Z,64.63
2023-03-01T01:16:33.646Z,64.80
2023-03-01T01:19:01.644Z,64.86
2023-03-01T01:21:29.527Z,64.74
2023-03-01T01:23:58.103Z,64.88
2023-03-01T01:26:29.522Z,64.90
2023-03-01T01:28:58.609Z,65.04
2023-03-01T01:31:27.769Z,64.88
2023-03-01T01:33:56.451Z,65.06
2023-03-01T01:36:24.918Z,65.09
2023-03-01T01:38:53.172Z,65.00
2023-03-01T01:41:21.979Z,65.02
2023-03-01T01:44:10.826Z,64.88
2023-03-01T01:46:56.958Z,64.91
2023-03-01T01:49:42.699Z,64.97
2023-03-01T01:52:12.370Z,65.15
2023-03-01T01:54:43.052Z,65.10
2023-03-01T01:57:17.334Z,65.05
2023-03-01T01:59:51.961Z,65.08
2023-03-01T02:02:20.870Z,65.25
2023-03-01T02:04:50.801Z,65.24
2023-03-01T02:07:22.666Z,65.28
2023-03-01T02:09:53.870Z,65.19
2023-03-01T02:12:25.078Z,65.06
2023-03-01T02:14:52.914Z,65.07
2023-03-01T02:17:22.568Z,65.02
2023-03-01T02:20:24.600Z,65.08
2023-03-01T02:22:54.675Z,65.08
2023-03-01T02:25:45.206Z,65.16
2023-03-01T02:28:19.007Z,65.13
2023-03-01T02:31:07.225Z,65.16
2023-03-01T02:33:39.100Z,65.28
2023-03-01T02:36:12.700Z,65.27
2023-03-01T02:38:42.184Z,65.20
2023-03-01T02:41:14.583Z,65.22
2023-03-01T02:43:43.116Z,65.39
2023-03-01T02:46:23.285Z,65.19
2023-03-01T02:48:54.177Z,65.32
2023-03-01T02:51:34.032Z,65.31
2023-03-01T02:54:29.941Z,65.22
2023-03-01T02:56:59.053Z,65.36
2023-03-01T02:59:32.161Z,65.44
2023-03-01T03:02:01.870Z,65.37
2023-03-01T03:04:29.665Z,65.54
2023-03-01T03:06:57.467Z,65.50
2023-03-01T03:09:26.020Z,65.47
2023-03-01T03:11:54.278Z,65.35
2023-03-01T03:14:22.486Z,65.32
2023-03-01T03:16:51.603Z,65.54
2023-03-01T03:19:20.478Z,65.54
2023-03-01T03:21:48.524Z,65.61
2023-03-01T03:24:16.464Z,65.55
2023-03-01T03:26:44.662Z,65.63
2023-03-01T03:29:13.044Z,65.73
2023-03-01T03:31:40.879Z,65.70
2023-03-01T03:34:08.686Z,65.73
2023-03-01T03:36:36.504Z,65.72
2023-03-01T03:39:04.842Z,65.56
2023-03-01T03:41:36.865Z,65.47
2023-03-01T03:44:05.468Z,65.68
2023-03-01T03:46:33.940Z,65.65
2023-03-01T03:49:01.854Z,65.57
2023-03-01T03:51:29.684Z,65.68
2023-03-01T03:53:58.036Z,65.69
2023-03-01T03:56:28.636Z,65.78
2023-03-01T03:58:56.704Z,65.75
2023-03-01T04:01:24.619Z,65.60
2023-03-01T04:03:55.522Z,65.59
2023-03-01T04:06:23.655Z,65.80
2023-03-01T04:08:52.163Z,65.75
2023-03-01T04:11:28.926Z,65.77
2023-03-01T04:13:59.987Z,65.71
2023-03-01T04:16:28.297Z,65.68
2023-03-01T04:18:56.477Z,65.86
2023-03-01T04:21:24.261Z,65.69
2023-03-01T04:23:53.822Z,65.70
2023-03-01T04:26:22.041Z,65.80
2023-03-01T04:28:51.502Z,65.69
2023-03-01T04:31:22.360Z,65.81
2023-03-01T04:33:53.476Z,65.85
2023-03-01T04:36:24.758Z,65.91
2023-03-01T04:38:53.092Z,65.89
2023-03-01T04:41:23.749Z,65.82
2023-03-01T04:43:51.804Z,65.74
2023-03-01T04:46:22.053Z,65.78
2023-03-01T04:48:50.321Z,65.77
2023-03-01T04:51:19.500Z,65.86
2023-03-01T04:53:47.439Z,65.92
2023-03-01T04:56:16.986Z,65.85
2023-03-01T04:58:46.372Z,65.86
2023-03-01T05:01:19.964Z,65.86
2023-03-01T05:03:49.039Z,65.98
2023-03-01T05:06:20.871Z,65.91
2023-03-01T05:08:48.978Z,65.72
2023-03-01T05:11:17.211Z,65.79
2023-03-01T05:13:45.144Z,65.83
2023-03-01T05:16:13.249Z,65.82
2023-03-01T05:18:41.782Z,65.83
2023-03-01T05:21:12.651Z,65.75
2023-03-01T05:23:40.572Z,65.95
2023-03-01T05:26:25.931Z,66.08
2023-03-01T05:29:00.604Z,65.97
2023-03-01T05:31:29.486Z,65.95
2023-03-01T05:33:57.497Z,66.05
2023-03-01T05:36:25.380Z,66.08
2023-03-01T05:38:53.116Z,66.28
2023-03-01T05:41:20.937Z,66.29
2023-03-01T05:43:49.189Z,66.26
2023-03-01T05:46:17.544Z,66.35
2023-03-01T05:48:45.983Z,66.42
2023-03-01T05:51:13.763Z,66.52
2023-03-01T05:53:41.517Z,66.65
2023-03-01T05:56:09.392Z,66.82
2023-03-01T05:58:37.252Z,66.73
2023-03-01T06:01:05.741Z,66.67
2023-03-01T06:03:34.023Z,66.74
2023-03-01T06:06:01.877Z,66.64
2023-03-01T06:08:29.686Z,66.72
2023-03-01T06:10:57.496Z,66.82
2023-03-01T06:13:25.815Z,66.94
2023-03-01T06:15:54.191Z,66.96
2023-03-01T06:18:22.681Z,67.16
2023-03-01T06:20:55.405Z,67.07
2023-03-01T06:23:24.339Z,67.10
2023-03-01T06:25:52.271Z,67.25
2023-03-01T06:28:20.213Z,67.11
2023-03-01T06:30:48.559Z,67.09
2023-03-01T06:33:17.089Z,67.41
2023-03-01T06:35:44.919Z,67.08
2023-03-01T06:38:16.110Z,67.07
2023-03-01T06:40:43.955Z,67.42
2023-03-01T06:43:11.886Z,67.43
2023-03-01T06:45:40.831Z,67.30
2023-03-01T06:48:08.812Z,67.16
2023-03-01T06:50:37.253Z,67.41
2023-03-01T06:53:05.303Z,67.34
2023-03-01T06:55:33.651Z,67.48
2023-03-01T06:58:04.305Z,67.80
2023-03-01T07:00:33.045Z,67.63
2023-03-01T07:03:03.178Z,67.62
2023-03-01T07:05:31.894Z,68.07
2023-03-01T07:07:59.728Z,67.53
2023-03-01T07:10:27.602Z,67.87
2023-03-01T07:12:57.975Z,67.98
2023-03-01T07:15:27.886Z,67.86
2023-03-01T07:17:56.887Z,67.87
2023-03-01T07:20:26.676Z,67.85
2023-03-01T07:22:55.986Z,67.87
2023-03-01T07:25:24.399Z,67.96
2023-03-01T07:27:53.671Z,67.66
2023-03-01T07:30:22.807Z,67.70
2023-03-01T07:32:50.746Z,67.97
2023-03-01T07:35:19.202Z,67.64
2023-03-01T07:37:46.986Z,67.88
2023-03-01T07:40:15.401Z,68.05
2023-03-01T07:42:43.640Z,68.06
2023-03-01T07:45:12.570Z,67.98
2023-03-01T07:47:40.608Z,67.94
2023-03-01T07:50:09.627Z,68.27
2023-03-01T07:52:37.454Z,68.11
2023-03-01T07:55:06.922Z,68.30
2023-03-01T07:57:35.576Z,68.29
2023-03-01T08:00:03.999Z,67.88
2023-03-01T08:02:32.232Z,68.04
2023-03-01T08:05:00.388Z,68.06
2023-03-01T08:07:28.852Z,68.15
2023-03-01T08:09:57.175Z,68.12
2023-03-01T08:12:25.428Z,68.10
2023-03-01T08:14:53.280Z,68.11
2023-03-01T08:17:21.138Z,67.91
2023-03-01T08:19:49.199Z,67.86
2023-03-01T08:22:18.038Z,67.94
2023-03-01T08:24:45.947Z,67.75
2023-03-01T08:27:14.480Z,67.83
2023-03-01T08:29:42.252Z,67.87
2023-03-01T08:32:10.232Z,67.55
2023-03-01T08:34:39.404Z,67.46
2023-03-01T08:37:08.849Z,67.66
2023-03-01T08:39:36.689Z,67.51
2023-03-01T08:42:04.682Z,67.57
2023-03-01T08:44:32.573Z,67.81
2023-03-01T08:47:01.092Z,67.67
2023-03-01T08:49:29.530Z,67.75
2023-03-01T08:51:59.235Z,67.78
2023-03-01T08:54:27.065Z,67.70
2023-03-01T08:56:55.031Z,67.60
2023-03-01T08:59:22.824Z,67.61
2023-03-01T09:01:50.755Z,67.53
2023-03-01T09:04:19.000Z,67.77
2023-03-01T09:06:47.912Z,67.71
2023-03-01T09:09:17.952Z,67.76
2023-03-01T09:11:47.516Z,67.68
2023-03-01T09:14:15.792Z,67.69
2023-03-01T09:16:44.481Z,67.68
2023-03-01T09:19:14.100Z,67.62
2023-03-01T09:21:42.339Z,67.50
2023-03-01T09:24:14.670Z,67.61
2023-03-01T09:26:42.707Z,67.56
2023-03-01T09:29:11.324Z,67.22
2023-03-01T09:31:39.953Z,66.86
2023-03-01T09:34:09.086Z,66.81
2023-03-01T09:36:37.444Z,67.03
2023-03-01T09:39:07.062Z,67.03
2023-03-01T09:41:50.562Z,66.92
2023-03-01T09:44:34.284Z,66.89
2023-03-01T09:47:03.986Z,67.12
2023-03-01T09:49:36.314Z,67.18
2023-03-01T09:52:20.367Z,67.24
2023-03-01T09:54:51.158Z,67.05
2023-03-01T09:57:19.781Z,67.15
2023-03-01T09:59:53.662Z,67.09
2023-03-01T10:02:27.828Z,67.15
2023-03-01T10:05:20.556Z,66.94
2023-03-01T10:08:21.476Z,66.89
2023-03-01T10:10:51.058Z,67.00
2023-03-01T10:13:26.399Z,66.38
2023-03-01T10:16:00.693Z,66.31
2023-03-01T10:18:34.670Z,66.67
2023-03-01T10:21:14.281Z,66.88
2023-03-01T10:23:42.140Z,66.62
2023-03-01T10:26:19.107Z,66.75
2023-03-01T10:29:08.864Z,66.71
2023-03-01T10:31:51.846Z,66.42
2023-03-01T10:34:30.126Z,66.69
2023-03-01T10:37:09.691Z,66.89
2023-03-01T10:39:38.063Z,66.67
2023-03-01T10:42:24.513Z,66.37
2023-03-01T10:44:52.361Z,66.19
2023-03-01T10:47:29.078Z,66.52
2023-03-01T10:50:07.036Z,66.33
2023-03-01T10:52:40.136Z,66.64
2023-03-01T10:55:14.132Z,66.92
2023-03-01T10:57:43.135Z,66.78
2023-03-01T11:00:14.542Z,66.44
2023-03-01T11:02:43.059Z,66.63
2023-03-01T11:05:13.733Z,66.47
2023-03-01T11:08:02.698Z,66.48
2023-03-01T11:10:33.438Z,66.46
2023-03-01T11:13:19.853Z,66.47
2023-03-01T11:16:13.618Z,65.81
2023-03-01T11:18:48.206Z,65.70
2023-03-01T11:21:17.574Z,65.98
2023-03-01T11:23:48.012Z,65.96
2023-03-01T11:26:18.535Z,66.18
2023-03-01T11:28:52.663Z,66.08
2023-03-01T11:31:21.285Z,66.34
2023-03-01T11:34:04.612Z,66.03
2023-03-01T11:36:37.983Z,65.99
2023-03-01T11:39:43.896Z,66.26
2023-03-01T11:42:20.937Z,65.97
2023-03-01T11:44:55.787Z,65.76
2023-03-01T11:47:30.275Z,65.71
2023-03-01T11:50:20.722Z,65.39
2023-03-01T11:53:28.997Z,66.11
2023-03-01T11:56:34.024Z,66.11
2023-03-01T11:59:14.786Z,65.56
2023-03-01T12:02:00.711Z,65.70
2023-03-01T12:04:28.547Z,64.75
2023-03-01T12:07:10.469Z,64.80
2023-03-01T12:10:14.942Z,65.71
2023-03-01T12:12:48.637Z,65.21
2023-03-01T12:15:25.760Z,65.65
2023-03-01T12:18:24.787Z,65.02
2023-03-01T12:21:04.125Z,65.34
2023-03-01T12:23:46.180Z,65.41
2023-03-01T12:26:25.991Z,64.08
2023-03-01T12:29:36.095Z,65.15
2023-03-01T12:32:21.906Z,65.14
2023-03-01T12:35:13.968Z,64.84
2023-03-01T12:38:00.876Z,65.12
2023-03-01T12:40:47.351Z,64.81
2023-03-01T12:43:24.214Z,64.45
2023-03-01T12:46:09.199Z,63.18
2023-03-01T12:48:37.004Z,64.31
2023-03-01T12:51:11.913Z,63.99
2023-03-01T12:53:45.195Z,63.86
2023-03-01T12:56:17.945Z,63.92
2023-03-01T12:59:07.349Z,64.17
2023-03-01T13:02:01.375Z,63.90
2023-03-01T13:05:09.296Z,63.56
2023-03-01T13:07:45.406Z,63.20
2023-03-01T13:10:30.423Z,63.67
2023-03-01T13:12:58.995Z,63.04
2023-03-01T13:15:29.852Z,63.62
2023-03-01T13:18:03.014Z,63.63
2023-03-01T13:20:46.923Z,63.67
2023-03-01T13:23:23.949Z,63.81
2023-03-01T13:26:01.752Z,63.63
2023-03-01T13:28:38.649Z,63.35
2023-03-01T13:31:08.982Z,62.82
2023-03-01T13:33:54.428Z,63.30
2023-03-01T13:36:28.723Z,62.92
2023-03-01T13:38:58.568Z,63.18
2023-03-01T13:41:44.891Z,63.36
2023-03-01T13:44:28.015Z,62.91
2023-03-01T13:47:21.332Z,62.98
2023-03-01T13:49:54.975Z,62.55
2023-03-01T13:52:34.119Z,63.01
2023-03-01T13:55:04.992Z,62.83
2023-03-01T13:57:40.235Z,62.70
2023-03-01T14:00:26.491Z,62.96
2023-03-01T14:03:07.220Z,62.33
2023-03-01T14:05:37.275Z,62.15
2023-03-01T14:08:18.585Z,62.43
2023-03-01T14:10:59.615Z,62.47
2023-03-01T14:13:39.976Z,62.37
2023-03-01T14:16:21.870Z,62.23
2023-03-01T14:19:07.569Z,62.44
2023-03-01T14:21:36.398Z,62.25
2023-03-01T14:24:04.649Z,62.57
2023-03-01T14:26:36.719Z,62.30
2023-03-01T14:29:05.062Z,62.41
2023-03-01T14:31:52.035Z,61.65
2023-03-01T14:34:23.601Z,61.75
2023-03-01T14:36:51.413Z,62.11
2023-03-01T14:39:24.707Z,60.96
2023-03-01T14:41:53.892Z,60.68
2023-03-01T14:44:26.041Z,61.38
2023-03-01T14:46:57.106Z,61.22
2023-03-01T14:49:30.485Z,61.20
2023-03-01T14:52:08.015Z,61.34
2023-03-01T14:54:46.177Z,61.23
2023-03-01T14:57:26.187Z,61.09
2023-03-01T14:59:58.567Z,60.98
2023-03-01T15:02:29.753Z,61.18
2023-03-01T15:05:01.949Z,60.93
2023-03-01T15:07:39.900Z,60.85
2023-03-01T17:52:58.981Z,59.64
2023-03-01T17:55:26.909Z,59.65
2023-03-01T17:57:54.740Z,59.65
2023-03-01T18:00:22.806Z,59.62
2023-03-01T18:02:50.701Z,59.71
2023-03-01T18:05:19.317Z,59.67
2023-03-01T18:07:47.670Z,59.65
2023-03-01T18:10:15.642Z,59.69
2023-03-01T18:12:43.512Z,59.72
2023-03-01T18:15:12.651Z,59.57
2023-03-01T18:17:41.002Z,59.57
2023-03-01T18:20:10.880Z,59.48
2023-03-01T18:22:39.991Z,59.70
2023-03-01T18:25:22.314Z,59.68
2023-03-01T18:27:53.660Z,59.70
2023-03-01T18:30:22.250Z,59.71
2023-03-01T18:32:56.242Z,59.75
2023-03-01T18:35:26.857Z,59.52
2023-03-01T18:37:54.656Z,59.72
2023-03-01T18:40:22.622Z,59.81
2023-03-01T18:42:53.897Z,59.78
2023-03-01T18:45:22.503Z,59.49
2023-03-01T18:47:50.661Z,59.69
2023-03-01T18:50:19.019Z,59.93
2023-03-01T18:52:48.347Z,59.89
2023-03-01T18:55:16.404Z,59.89
2023-03-01T18:57:44.873Z,59.92
2023-03-01T19:00:14.243Z,59.98
2023-03-01T19:02:45.093Z,59.77
2023-03-01T19:05:17.041Z,59.91
2023-03-01T19:07:45.368Z,59.97
2023-03-01T19:10:13.150Z,59.76
2023-03-01T19:12:44.005Z,59.93
2023-03-01T19:15:12.841Z,59.98
2023-03-01T19:17:40.675Z,59.79
2023-03-01T19:20:15.023Z,59.84
2023-03-01T19:22:42.892Z,59.85
2023-03-01T19:25:14.874Z,59.94
2023-03-01T19:28:01.618Z,59.99
2023-03-01T19:30:29.516Z,60.15
2023-03-01T19:32:59.946Z,59.83
2023-03-01T19:35:28.125Z,60.10
2023-03-01T19:37:56.521Z,59.85
2023-03-01T19:43:38.400Z,60.09
2023-03-01T19:46:08.749Z,60.18
2023-03-01T19:48:40.297Z,60.28
2023-03-01T19:51:11.864Z,59.96
2023-03-01T19:53:42.287Z,59.91
2023-03-01T19:56:10.861Z,60.24
2023-03-01T19:58:41.776Z,60.06
2023-03-01T20:01:21.343Z,59.97
2023-03-01T20:03:52.373Z,60.12
2023-03-01T20:06:21.773Z,60.15
2023-03-01T20:08:50.212Z,60.04
2023-03-01T20:11:22.064Z,60.13
2023-03-01T20:13:49.980Z,60.08
2023-03-01T20:16:21.374Z,60.36
2023-03-01T20:18:50.627Z,60.40
2023-03-01T20:21:24.440Z,60.16
2023-03-01T20:24:03.104Z,60.49
2023-03-01T20:26:33.511Z,60.02
2023-03-01T20:29:01.607Z,60.04
2023-03-01T20:31:32.479Z,60.06
2023-03-01T20:34:01.102Z,60.11
2023-03-01T20:36:28.930Z,60.48
2023-03-01T20:38:59.781Z,60.36
2023-03-01T20:41:28.673Z,60.35
2023-03-01T20:43:58.756Z,60.38
2023-03-01T20:46:32.750Z,60.55
2023-03-01T20:49:04.449Z,60.61
2023-03-01T20:51:32.291Z,60.47
2023-03-01T20:54:00.082Z,60.50
2023-03-01T20:56:28.141Z,60.54
2023-03-01T20:58:59.253Z,60.55
2023-03-01T21:01:27.689Z,60.74
2023-03-01T21:03:56.276Z,60.70
2023-03-01T21:06:24.212Z,60.57
2023-03-01T21:08:52.038Z,60.72
2023-03-01T21:11:19.826Z,60.55
2023-03-01T21:13:48.070Z,60.67
2023-03-01T21:16:17.123Z,60.67
2023-03-01T21:18:45.637Z,60.81
2023-03-01T21:21:16.724Z,60.69
2023-03-01T21:23:45.359Z,60.74
2023-03-01T21:26:14.927Z,60.98
2023-03-01T21:28:44.528Z,60.67
2023-03-01T21:31:18.414Z,60.89
2023-03-01T21:33:52.133Z,61.00
2023-03-01T21:36:20.952Z,61.15
2023-03-01T21:38:50.984Z,60.88
2023-03-01T21:41:31.389Z,60.98
2023-03-01T21:44:08.881Z,61.09
2023-03-01T21:46:38.875Z,60.87
2023-03-01T21:49:08.943Z,61.03
2023-03-01T21:51:37.020Z,61.22
2023-03-01T21:54:05.992Z,60.94
2023-03-01T21:56:38.761Z,61.21
2023-03-01T21:59:13.925Z,61.28
2023-03-01T22:01:43.029Z,61.07
2023-03-01T22:04:13.351Z,61.10
2023-03-01T22:06:46.474Z,61.19
2023-03-01T22:09:22.449Z,61.13
2023-03-01T22:12:02.638Z,61.05
2023-03-01T22:14:32.555Z,61.25
2023-03-01T22:17:00.853Z,61.30
2023-03-01T22:19:32.325Z,61.28
2023-03-01T22:22:00.187Z,61.06
2023-03-01T22:24:28.983Z,61.19
2023-03-01T22:26:56.893Z,61.21
2023-03-01T22:29:27.897Z,61.33
2023-03-01T22:31:57.510Z,60.99
2023-03-01T22:34:25.384Z,61.28
2023-03-01T22:36:53.755Z,61.22
2023-03-01T22:39:24.091Z,61.42
2023-03-01T22:41:54.465Z,61.29
2023-03-01T22:44:23.751Z,61.42
2023-03-01T22:46:52.378Z,61.34
2023-03-01T22:49:21.073Z,61.38
2023-03-01T22:51:50.302Z,61.38
2023-03-01T22:54:19.098Z,61.46
2023-03-01T22:56:47.525Z,61.62
2023-03-01T22:59:19.725Z,61.85
2023-03-01T23:01:48.306Z,61.49
2023-03-01T23:04:17.638Z,61.37
2023-03-01T23:06:54.309Z,61.40
2023-03-01T23:09:34.432Z,61.69
2023-03-01T23:12:06.772Z,61.53
2023-03-01T23:14:35.665Z,61.43
2023-03-01T23:17:05.464Z,61.80
2023-03-01T23:19:33.527Z,61.74
2023-03-01T23:22:01.497Z,61.64
2023-03-01T23:24:31.968Z,61.70
2023-03-01T23:27:01.824Z,61.89
2023-03-01T23:29:30.246Z,61.85
2023-03-01T23:31:58.770Z,61.84
2023-03-01T23:34:27.708Z,61.86
2023-03-01T23:36:56.490Z,61.71
2023-03-01T23:39:24.257Z,62.07
2023-03-01T23:41:52.147Z,61.90
2023-03-01T23:44:24.367Z,61.89
2023-03-01T23:46:52.277Z,61.78
2023-03-01T23:49:23.238Z,61.99
2023-03-01T23:51:52.318Z,61.95
2023-03-01T23:54:23.282Z,61.83
2023-03-01T23:56:52.145Z,62.18
2023-03-01T23:59:22.432Z,62.03
